< < Back
Terminal Aerodrome Forecast


Current Version              Previous Versions:   1  2  3  4  5  6  7  8  9  

Terminal Aerodrome Forecast

322
FTUS42 KTAE 271720
TAFDHN
TAF
KDHN 271720Z 2718/2818 09006KT P6SM SKC=



Latest METAR

794
SAUS70 KWBC 272000 RRC
MTRDHN
METAR KDHN 271953Z 09005KT 10SM CLR 32/21 A3005 RMK AO2 SLP167
T03220206


USA.gov is the U.S. government's official web portal to all federal, state and local government web resources and services.